Time;durP1;ratioP1;P1;durP2;ratioP2;P2;SDS_P1;SDS_P2;PMS_P1;PMS_P2;Temp;Humidity;BMP_temperature;BMP_pressure;BME280_temperature;BME280_humidity;BME280_pressure;Samples;Min_cycle;Max_cycle;Signal;HPM_P1;HPM_P2
2023/07/07 00:00:13;;;;;;;1.53;1.20;;;14.00;99.90;;;;;;5094847;28;20179;-43
2023/07/07 00:02:38;;;;;;;3.97;1.60;;;13.90;99.90;;;;;;5094124;28;20670;-41
2023/07/07 00:05:04;;;;;;;3.97;1.63;;;13.90;99.90;;;;;;5094836;28;20187;-42
2023/07/07 00:07:31;;;;;;;5.43;1.60;;;13.90;99.90;;;;;;5094984;28;20182;-42
2023/07/07 00:09:57;;;;;;;2.23;1.60;;;13.80;99.90;;;;;;5094832;28;20181;-42
2023/07/07 00:12:23;;;;;;;3.20;1.63;;;13.80;99.90;;;;;;5094562;28;20254;-40
2023/07/07 00:14:49;;;;;;;4.53;1.57;;;13.70;99.90;;;;;;5094599;28;20686;-43
2023/07/07 00:17:16;;;;;;;5.70;1.80;;;13.70;99.90;;;;;;5093223;28;20275;-43
2023/07/07 00:19:42;;;;;;;2.60;1.57;;;13.60;99.90;;;;;;5094527;28;20219;-42
2023/07/07 00:22:07;;;;;;;3.67;1.90;;;13.60;99.90;;;;;;5094420;28;20554;-41
2023/07/07 00:24:34;;;;;;;2.47;1.50;;;13.60;99.90;;;;;;5094538;28;20198;-43
2023/07/07 00:27:00;;;;;;;2.20;1.70;;;13.60;99.90;;;;;;5094906;28;20167;-42
2023/07/07 00:29:26;;;;;;;5.50;2.33;;;13.50;99.90;;;;;;5093062;28;20183;-42
2023/07/07 00:31:51;;;;;;;2.93;1.77;;;13.40;99.90;;;;;;5094268;28;20634;-42
2023/07/07 00:34:17;;;;;;;7.30;2.03;;;13.40;99.90;;;;;;5094187;28;20527;-43
2023/07/07 00:36:42;;;;;;;3.30;1.60;;;13.40;99.90;;;;;;5094313;28;20182;-45
2023/07/07 00:39:09;;;;;;;5.63;1.90;;;13.40;99.90;;;;;;5094168;28;20201;-43
2023/07/07 00:41:34;;;;;;;3.47;1.87;;;13.40;99.90;;;;;;5092970;28;20187;-42
2023/07/07 00:44:08;;;;;;;3.33;1.57;;;13.40;99.90;;;;;;5094186;28;20682;-44
2023/07/07 00:46:34;;;;;;;3.60;1.60;;;13.30;99.90;;;;;;5094299;28;20163;-42
2023/07/07 00:49:04;;;;;;;1.87;1.50;;;13.30;99.90;;;;;;5095861;28;20644;-42
2023/07/07 00:51:36;;;;;;;3.63;1.77;;;13.20;99.90;;;;;;5093868;28;20542;-44
2023/07/07 00:54:07;;;;;;;2.70;1.70;;;13.20;99.90;;;;;;5094945;28;20186;-43
2023/07/07 00:56:36;;;;;;;2.13;1.60;;;13.10;99.90;;;;;;5094434;28;20159;-42
2023/07/07 00:59:08;;;;;;;3.57;1.60;;;13.10;99.90;;;;;;5093891;28;20182;-41
2023/07/07 01:01:35;;;;;;;4.57;1.57;;;13.10;99.90;;;;;;5094149;28;20237;-42
2023/07/07 01:04:04;;;;;;;8.43;1.93;;;13.10;99.90;;;;;;5093642;28;20296;-43
2023/07/07 01:06:36;;;;;;;2.70;1.70;;;13.00;99.90;;;;;;5093802;28;20646;-40
2023/07/07 01:09:08;;;;;;;3.03;1.80;;;13.00;99.90;;;;;;5094150;28;20505;-43
2023/07/07 01:11:35;;;;;;;8.67;1.90;;;13.00;99.90;;;;;;5093940;28;20156;-44
2023/07/07 01:14:05;;;;;;;5.47;2.47;;;12.90;99.90;;;;;;5092815;28;20179;-42
2023/07/07 01:16:42;;;;;;;2.13;1.70;;;12.90;99.90;;;;;;5093583;28;20179;-40
2023/07/07 01:19:40;;;;;;;3.03;2.03;;;12.80;99.90;;;;;;5093847;28;20182;-43
2023/07/07 01:22:34;;;;;;;7.60;1.90;;;12.80;99.90;;;;;;5092818;28;20190;-42
2023/07/07 01:25:18;;;;;;;7.27;2.20;;;12.80;99.90;;;;;;5093798;28;20270;-42
2023/07/07 01:28:08;;;;;;;14.63;2.20;;;12.80;99.90;;;;;;5093577;28;20161;-42
2023/07/07 01:30:53;;;;;;;5.97;2.20;;;12.70;99.90;;;;;;5093538;28;20167;-40
2023/07/07 01:33:24;;;;;;;6.23;2.10;;;12.70;99.90;;;;;;5093297;28;20190;-45
2023/07/07 01:35:50;;;;;;;5.17;1.80;;;12.70;99.90;;;;;;5093479;28;20736;-43
2023/07/07 01:38:37;;;;;;;4.07;1.70;;;12.60;99.90;;;;;;5093328;28;20235;-39
2023/07/07 01:41:19;;;;;;;6.30;1.97;;;12.60;99.90;;;;;;5093252;28;20212;-43
2023/07/07 01:43:48;;;;;;;3.93;1.67;;;12.50;99.90;;;;;;5093266;28;20216;-41
2023/07/07 01:46:28;;;;;;;5.40;2.03;;;12.50;99.90;;;;;;5093259;28;20539;-42
2023/07/07 01:49:00;;;;;;;4.47;1.80;;;12.50;99.90;;;;;;5094644;28;20163;-41
2023/07/07 01:51:31;;;;;;;3.63;1.83;;;12.50;99.90;;;;;;5093267;28;20166;-38
2023/07/07 01:53:58;;;;;;;3.10;1.93;;;12.40;99.90;;;;;;5093168;28;20227;-42
2023/07/07 01:56:28;;;;;;;5.97;1.93;;;12.40;99.90;;;;;;5091817;28;20288;-40
2023/07/07 01:58:54;;;;;;;3.47;1.73;;;12.40;99.90;;;;;;5093571;28;20273;-42
2023/07/07 02:01:20;;;;;;;4.17;1.70;;;12.30;99.90;;;;;;5093291;28;20265;-43
2023/07/07 02:03:45;;;;;;;4.40;1.70;;;12.30;99.90;;;;;;5093296;28;20195;-40
2023/07/07 02:06:11;;;;;;;5.90;1.73;;;12.20;99.90;;;;;;5093093;28;20207;-43
2023/07/07 02:08:36;;;;;;;8.47;1.83;;;12.20;99.90;;;;;;5093398;28;20177;-42
2023/07/07 02:11:02;;;;;;;4.20;1.90;;;12.20;99.90;;;;;;5091810;28;20662;-43
2023/07/07 02:13:28;;;;;;;9.70;2.10;;;12.10;99.90;;;;;;5091754;28;20188;-44
2023/07/07 02:15:53;;;;;;;7.57;2.50;;;12.10;99.90;;;;;;5093144;28;20279;-43
2023/07/07 02:18:20;;;;;;;3.97;1.60;;;12.10;99.90;;;;;;5092957;28;20706;-44
2023/07/07 02:20:45;;;;;;;6.43;2.00;;;12.00;99.90;;;;;;5092974;28;20203;-42
2023/07/07 02:23:11;;;;;;;5.03;1.90;;;12.00;99.90;;;;;;5093024;28;20623;-41
2023/07/07 02:25:36;;;;;;;5.60;2.13;;;12.00;99.90;;;;;;5095723;28;20269;-43
2023/07/07 02:28:02;;;;;;;5.50;1.83;;;12.00;99.90;;;;;;5096740;28;20631;-41
2023/07/07 02:30:28;;;;;;;4.90;1.70;;;12.00;99.90;;;;;;5096684;28;20175;-42
2023/07/07 02:32:54;;;;;;;4.33;2.03;;;12.00;99.90;;;;;;5095395;28;20179;-42
2023/07/07 02:35:20;;;;;;;5.00;2.03;;;11.90;99.90;;;;;;5098048;28;20273;-41
2023/07/07 02:37:46;;;;;;;3.80;2.07;;;11.90;99.90;;;;;;5097412;28;20292;-42
2023/07/07 02:40:12;;;;;;;6.13;2.10;;;11.90;99.90;;;;;;5097287;28;20243;-43
2023/07/07 02:42:37;;;;;;;5.00;2.10;;;11.90;99.90;;;;;;5096375;28;20290;-41
2023/07/07 02:45:03;;;;;;;4.50;2.00;;;11.90;99.90;;;;;;5096283;28;20226;-42
2023/07/07 02:47:29;;;;;;;3.17;2.00;;;11.90;99.90;;;;;;5096305;28;20254;-42
2023/07/07 02:49:55;;;;;;;3.53;2.27;;;11.90;99.90;;;;;;5097376;28;20186;-39
2023/07/07 02:52:20;;;;;;;6.50;2.47;;;11.80;99.90;;;;;;5096525;28;20179;-43
2023/07/07 02:54:46;;;;;;;4.13;1.97;;;11.80;99.90;;;;;;5096344;28;20678;-42
2023/07/07 02:57:11;;;;;;;5.00;1.80;;;11.70;99.90;;;;;;5094851;28;20639;-42
2023/07/07 02:59:37;;;;;;;7.43;2.40;;;11.70;99.90;;;;;;5096347;28;20177;-41
2023/07/07 03:02:03;;;;;;;6.70;1.93;;;11.70;99.90;;;;;;5096070;28;20173;-41
2023/07/07 03:04:28;;;;;;;6.17;2.10;;;11.70;99.90;;;;;;5096109;28;20219;-41
2023/07/07 03:06:54;;;;;;;6.70;2.47;;;11.70;99.90;;;;;;5096451;28;20178;-41
2023/07/07 03:09:20;;;;;;;4.87;2.03;;;11.70;99.90;;;;;;5096300;28;20179;-40
2023/07/07 03:11:46;;;;;;;9.67;2.50;;;11.60;99.90;;;;;;5095856;28;20187;-44
2023/07/07 03:14:11;;;;;;;6.53;2.40;;;11.70;99.90;;;;;;5096174;28;20181;-42
2023/07/07 03:16:46;;;;;;;3.10;2.10;;;11.70;99.90;;;;;;5095739;28;20255;-41
2023/07/07 03:19:12;;;;;;;7.60;2.37;;;11.70;99.90;;;;;;5096124;28;20163;-43
2023/07/07 03:21:38;;;;;;;7.00;2.40;;;11.70;99.90;;;;;;5094461;28;20236;-39
2023/07/07 03:24:04;;;;;;;7.03;2.50;;;11.60;99.90;;;;;;5095547;28;20202;-40
2023/07/07 03:26:30;;;;;;;4.67;2.00;;;11.60;99.90;;;;;;5095712;28;20171;-41
2023/07/07 03:28:55;;;;;;;7.60;2.43;;;11.60;99.90;;;;;;5094349;28;20178;-39
2023/07/07 03:31:23;;;;;;;7.90;2.37;;;11.60;99.90;;;;;;5095854;28;20175;-42
2023/07/07 03:33:50;;;;;;;10.57;3.17;;;11.60;99.90;;;;;;5095686;28;20213;-39
2023/07/07 03:36:17;;;;;;;9.47;2.30;;;11.60;99.90;;;;;;5094334;28;20203;-42
2023/07/07 03:38:43;;;;;;;8.90;2.47;;;11.60;99.90;;;;;;5095085;28;20686;-42
2023/07/07 03:41:15;;;;;;;11.30;2.07;;;11.50;99.90;;;;;;5093975;28;20187;-39
2023/07/07 03:43:45;;;;;;;5.33;2.50;;;11.50;99.90;;;;;;5095327;28;20206;-40
2023/07/07 03:46:15;;;;;;;9.30;2.57;;;11.50;99.90;;;;;;5095358;28;20194;-42
2023/07/07 03:48:41;;;;;;;7.30;2.13;;;11.50;99.90;;;;;;5096502;28;20163;-44
2023/07/07 03:51:07;;;;;;;4.70;2.10;;;11.50;99.90;;;;;;5095273;28;20665;-45
2023/07/07 03:53:33;;;;;;;7.03;2.47;;;11.50;99.90;;;;;;5095278;28;20213;-45
2023/07/07 03:55:59;;;;;;;5.03;2.40;;;11.50;99.90;;;;;;5094950;28;20195;-47
2023/07/07 03:58:26;;;;;;;6.60;2.20;;;11.50;99.90;;;;;;5095279;28;20516;-45
2023/07/07 04:00:52;;;;;;;6.57;2.43;;;11.50;99.90;;;;;;5095213;28;20257;-46
2023/07/07 04:03:19;;;;;;;8.03;2.27;;;11.50;99.90;;;;;;5094709;28;20207;-44
2023/07/07 04:05:46;;;;;;;6.63;3.20;;;11.50;99.90;;;;;;5094796;28;20716;-44
2023/07/07 04:08:13;;;;;;;5.27;2.27;;;11.50;99.90;;;;;;5094719;28;20171;-46
2023/07/07 04:10:40;;;;;;;6.03;2.10;;;11.60;99.90;;;;;;5094731;28;20178;-46
2023/07/07 04:13:07;;;;;;;7.87;2.50;;;11.60;99.90;;;;;;5094855;28;20312;-45
2023/07/07 04:15:33;;;;;;;7.90;2.47;;;11.60;99.90;;;;;;5094474;28;20213;-44
2023/07/07 04:17:59;;;;;;;10.03;2.63;;;11.60;99.90;;;;;;5094587;28;20179;-45
2023/07/07 04:20:25;;;;;;;10.70;2.60;;;11.60;99.90;;;;;;5094768;28;20194;-44
2023/07/07 04:22:51;;;;;;;8.30;2.20;;;11.60;99.90;;;;;;5094349;28;20221;-45
2023/07/07 04:25:17;;;;;;;5.23;2.10;;;11.70;99.90;;;;;;5094430;28;20195;-46
2023/07/07 04:27:44;;;;;;;7.37;2.13;;;11.70;99.90;;;;;;5094333;28;20181;-43
2023/07/07 04:30:11;;;;;;;5.10;2.17;;;11.70;99.90;;;;;;5094664;28;20693;-44
2023/07/07 04:32:37;;;;;;;8.63;2.80;;;11.80;99.90;;;;;;5094165;28;20183;-46
2023/07/07 04:35:03;;;;;;;9.13;2.60;;;11.80;99.90;;;;;;5094145;28;20225;-45
2023/07/07 04:37:29;;;;;;;8.40;3.03;;;11.80;99.90;;;;;;5094399;28;20183;-44
2023/07/07 04:39:55;;;;;;;7.80;2.87;;;11.90;99.90;;;;;;5094070;28;20187;-45
2023/07/07 04:42:21;;;;;;;8.07;2.60;;;11.90;99.90;;;;;;5094463;28;20182;-44
2023/07/07 04:44:47;;;;;;;9.63;2.90;;;12.00;99.90;;;;;;5093929;28;20194;-46
2023/07/07 04:47:12;;;;;;;13.13;2.63;;;12.10;99.90;;;;;;5093779;28;20175;-45
2023/07/07 04:49:38;;;;;;;9.30;2.83;;;12.20;99.90;;;;;;5095115;28;20217;-45
2023/07/07 04:52:04;;;;;;;13.70;3.60;;;12.20;99.90;;;;;;5094021;28;20179;-45
2023/07/07 04:54:30;;;;;;;6.27;2.70;;;12.30;99.90;;;;;;5093886;28;20206;-45
2023/07/07 04:56:56;;;;;;;11.17;2.90;;;12.30;99.90;;;;;;5092459;28;20179;-45
2023/07/07 04:59:21;;;;;;;8.33;2.37;;;12.40;99.90;;;;;;5093749;28;20175;-46
2023/07/07 05:01:47;;;;;;;7.40;2.87;;;12.50;99.90;;;;;;5093983;28;20259;-42
2023/07/07 05:04:13;;;;;;;8.57;2.90;;;12.50;99.90;;;;;;5092286;28;20206;-46
2023/07/07 05:06:39;;;;;;;5.87;2.33;;;12.60;99.90;;;;;;5093724;28;20262;-46
2023/07/07 05:09:08;;;;;;;10.00;3.10;;;12.70;99.90;;;;;;5094143;28;20249;-44
2023/07/07 05:11:35;;;;;;;6.90;2.80;;;12.80;99.90;;;;;;5093871;28;20261;-46
2023/07/07 05:14:01;;;;;;;5.37;2.70;;;12.80;99.90;;;;;;5093931;28;20247;-46
2023/07/07 05:16:33;;;;;;;8.43;3.93;;;12.90;99.90;;;;;;5093581;28;20605;-46
2023/07/07 05:18:58;;;;;;;8.57;3.20;;;12.90;99.90;;;;;;5093915;28;20535;-46
2023/07/07 05:21:25;;;;;;;6.20;3.63;;;13.10;99.90;;;;;;5094175;28;20178;-45
2023/07/07 05:23:52;;;;;;;7.00;2.83;;;13.20;99.90;;;;;;5093680;28;20202;-44
2023/07/07 05:26:18;;;;;;;4.50;3.17;;;13.30;99.90;;;;;;5093585;28;20248;-46
2023/07/07 05:28:44;;;;;;;8.33;2.80;;;13.30;99.90;;;;;;5093681;28;20175;-46
2023/07/07 05:31:09;;;;;;;8.07;3.40;;;13.40;99.90;;;;;;5093571;28;20182;-48
2023/07/07 05:33:38;;;;;;;9.83;3.50;;;13.50;99.90;;;;;;5093816;28;20171;-45
2023/07/07 05:36:04;;;;;;;9.67;3.23;;;13.70;99.90;;;;;;5093970;28;20675;-42
2023/07/07 05:38:30;;;;;;;8.33;3.60;;;13.70;99.90;;;;;;5094001;28;20195;-45
2023/07/07 05:40:56;;;;;;;7.23;3.30;;;13.80;99.90;;;;;;5093802;28;20182;-46
2023/07/07 05:43:23;;;;;;;11.57;3.33;;;14.00;99.90;;;;;;5093675;28;20543;-46
2023/07/07 05:46:01;;;;;;;8.00;3.50;;;14.10;99.90;;;;;;5093294;28;20198;-46
2023/07/07 05:48:27;;;;;;;4.10;3.17;;;14.20;99.90;;;;;;5095167;28;20651;-46
2023/07/07 05:50:56;;;;;;;12.17;3.20;;;14.30;99.90;;;;;;5093563;28;20258;-46
2023/07/07 05:53:22;;;;;;;9.67;3.13;;;14.40;99.90;;;;;;5093182;28;20193;-45
2023/07/07 05:55:48;;;;;;;4.90;2.87;;;14.50;99.90;;;;;;5093133;28;20229;-46
2023/07/07 05:58:15;;;;;;;10.87;3.30;;;14.60;99.90;;;;;;5093154;28;20516;-47
2023/07/07 06:00:41;;;;;;;6.63;3.10;;;14.80;99.90;;;;;;5096275;28;20171;-47
2023/07/07 06:03:07;;;;;;;11.33;2.90;;;14.90;99.90;;;;;;5097019;28;20207;-47
2023/07/07 06:05:33;;;;;;;5.60;3.00;;;15.10;99.90;;;;;;5097272;28;20582;-46
2023/07/07 06:07:59;;;;;;;7.40;2.80;;;15.20;99.90;;;;;;5097040;28;20174;-45
2023/07/07 06:10:25;;;;;;;4.63;2.90;;;15.40;99.90;;;;;;5095839;28;20542;-46
2023/07/07 06:12:51;;;;;;;7.10;2.60;;;15.60;99.90;;;;;;5096977;28;20180;-47
2023/07/07 06:15:17;;;;;;;6.70;2.77;;;15.70;99.90;;;;;;5096881;28;20191;-46
2023/07/07 06:17:46;;;;;;;4.90;2.50;;;15.90;99.90;;;;;;5096954;28;20666;-46
2023/07/07 06:20:13;;;;;;;10.73;2.73;;;16.10;99.90;;;;;;5096810;28;20541;-47
2023/07/07 06:22:38;;;;;;;6.30;2.80;;;16.30;99.90;;;;;;5096956;28;20271;-46
2023/07/07 06:25:04;;;;;;;6.67;2.93;;;16.50;99.90;;;;;;5096668;28;20277;-47
2023/07/07 06:27:30;;;;;;;4.30;2.63;;;16.70;99.90;;;;;;5096586;28;20178;-46
2023/07/07 06:29:56;;;;;;;4.87;2.43;;;16.90;1.00;;;;;;5097171;28;20251;-43
2023/07/07 06:32:22;;;;;;;5.20;2.40;;;17.10;1.00;;;;;;5096888;28;20175;-47
2023/07/07 06:34:47;;;;;;;4.20;2.50;;;17.30;1.00;;;;;;5096832;28;20199;-45
2023/07/07 06:37:13;;;;;;;6.87;2.60;;;17.50;1.00;;;;;;5096479;28;20202;-47
2023/07/07 06:39:38;;;;;;;5.53;2.53;;;17.70;1.00;;;;;;5096197;28;20192;-46
2023/07/07 06:42:04;;;;;;;6.23;2.87;;;17.90;1.00;;;;;;5096636;28;20179;-47
2023/07/07 06:44:30;;;;;;;6.50;2.33;;;18.10;1.00;;;;;;5096220;28;20259;-47
2023/07/07 06:46:55;;;;;;;6.43;2.57;;;18.30;1.00;;;;;;5096465;28;20183;-47
2023/07/07 06:49:21;;;;;;;3.70;2.13;;;18.60;1.00;;;;;;5097250;28;20246;-46
2023/07/07 06:51:47;;;;;;;7.30;2.40;;;18.70;1.00;;;;;;5096501;28;20527;-45
2023/07/07 06:54:12;;;;;;;5.33;2.43;;;18.90;99.90;;;;;;5096576;28;20208;-47
2023/07/07 06:56:38;;;;;;;3.50;2.10;;;19.10;99.90;;;;;;5096373;28;20205;-47
2023/07/07 06:59:04;;;;;;;5.43;2.07;;;19.30;99.90;;;;;;5096063;28;20562;-46
2023/07/07 07:01:30;;;;;;;4.93;2.03;;;19.50;99.90;;;;;;5096187;28;20202;-47
2023/07/07 07:03:56;;;;;;;4.43;2.17;;;19.70;92.40;;;;;;5095848;28;20245;-46
2023/07/07 07:06:22;;;;;;;3.27;2.17;;;20.00;1.00;;;;;;5096118;28;20281;-46
2023/07/07 07:08:48;;;;;;;4.57;2.00;;;20.20;99.90;;;;;;5094804;28;20301;-45
2023/07/07 07:11:16;;;;;;;3.20;2.37;;;20.30;81.20;;;;;;5095883;28;20627;-47
2023/07/07 07:13:42;;;;;;;7.03;2.07;;;20.50;97.40;;;;;;5095778;28;20167;-47
2023/07/07 07:16:07;;;;;;;6.17;2.47;;;20.70;1.00;;;;;;5095634;28;20674;-45
2023/07/07 07:18:33;;;;;;;6.77;2.17;;;20.90;1.00;;;;;;5095613;28;20663;-48
2023/07/07 07:20:59;;;;;;;5.03;1.90;;;21.00;1.00;;;;;;5095867;28;20175;-47
2023/07/07 07:23:24;;;;;;;4.87;2.03;;;21.20;1.00;;;;;;5095688;28;20206;-48
2023/07/07 07:25:50;;;;;;;5.87;2.63;;;21.40;1.00;;;;;;5095377;28;20238;-46
2023/07/07 07:28:15;;;;;;;5.20;2.10;;;21.50;1.00;;;;;;5095514;28;20179;-47
2023/07/07 07:30:42;;;;;;;4.23;1.80;;;21.60;1.00;;;;;;5095575;28;20237;-46
2023/07/07 07:33:20;;;;;;;5.47;2.00;;;21.80;1.00;;;;;;5095347;28;20252;-47
2023/07/07 07:35:46;;;;;;;3.20;1.90;;;21.90;99.90;;;;;;5095397;28;20626;-47
2023/07/07 07:38:15;;;;;;;3.90;2.00;;;22.10;99.90;;;;;;5095435;28;20206;-47
2023/07/07 07:40:40;;;;;;;5.20;1.80;;;22.10;99.90;;;;;;5095509;28;20297;-48
2023/07/07 07:43:06;;;;;;;3.17;1.83;;;22.30;1.00;;;;;;5095337;28;20273;-47
2023/07/07 07:45:31;;;;;;;2.97;1.67;;;22.40;99.90;;;;;;5095046;28;20198;-47
2023/07/07 07:47:57;;;;;;;2.90;1.80;;;22.60;1.00;;;;;;5095766;28;20179;-49
2023/07/07 07:50:23;;;;;;;2.97;1.80;;;22.70;99.90;;;;;;5095505;28;20186;-43
2023/07/07 07:52:49;;;;;;;3.03;1.90;;;23.00;1.00;;;;;;5093960;28;20236;-43
2023/07/07 07:55:15;;;;;;;8.43;2.23;;;23.10;1.00;;;;;;5094854;28;20256;-45
2023/07/07 07:57:42;;;;;;;3.67;2.07;;;23.30;1.00;;;;;;5094878;28;20258;-42
2023/07/07 08:00:08;;;;;;;4.13;1.87;;;23.30;1.00;;;;;;5094886;28;20262;-43
2023/07/07 08:02:35;;;;;;;5.00;1.83;;;23.50;99.90;;;;;;5095009;28;20539;-44
2023/07/07 08:05:00;;;;;;;3.83;1.73;;;23.60;1.00;;;;;;5094920;28;20198;-44
2023/07/07 08:07:26;;;;;;;2.60;1.50;;;23.70;99.90;;;;;;5094698;28;20635;-43
2023/07/07 08:09:52;;;;;;;3.63;1.77;;;23.80;1.00;;;;;;5094646;28;20518;-45
2023/07/07 08:12:17;;;;;;;2.93;1.93;;;23.80;99.90;;;;;;5094600;28;20266;-44
2023/07/07 08:14:43;;;;;;;6.03;1.80;;;23.90;1.00;;;;;;5094413;28;20267;-44
2023/07/07 08:17:11;;;;;;;3.47;2.07;;;24.00;1.00;;;;;;5094523;28;20208;-43
2023/07/07 08:19:39;;;;;;;2.30;1.60;;;24.00;99.90;;;;;;5094570;28;20262;-43
2023/07/07 08:22:07;;;;;;;3.63;1.73;;;24.10;1.00;;;;;;5094199;28;20185;-44
2023/07/07 08:24:39;;;;;;;3.83;1.70;;;24.20;99.90;;;;;;5094332;28;20214;-44
2023/07/07 08:27:05;;;;;;;1.97;1.60;;;24.40;1.00;;;;;;5094485;28;20615;-45
2023/07/07 08:29:30;;;;;;;2.87;1.47;;;24.50;99.90;;;;;;5094584;28;20227;-42
2023/07/07 08:31:56;;;;;;;2.53;1.70;;;24.60;99.90;;;;;;5094644;28;20262;-44
2023/07/07 08:34:22;;;;;;;2.47;1.50;;;24.60;99.90;;;;;;5094429;28;20183;-44
2023/07/07 08:36:47;;;;;;;3.20;1.47;;;24.60;99.90;;;;;;5094164;28;20256;-44
2023/07/07 08:39:21;;;;;;;1.70;1.20;;;24.70;99.90;;;;;;5094408;28;20202;-44
2023/07/07 08:42:30;;;;;;;2.40;1.60;;;24.70;1.00;;;;;;5094773;28;20171;-44
2023/07/07 08:44:58;;;;;;;3.33;1.63;;;24.80;50.40;;;;;;5092994;28;20223;-44
2023/07/07 08:47:53;;;;;;;6.67;2.33;;;24.80;1.00;;;;;;5094052;28;20189;-44
2023/07/07 08:50:47;;;;;;;5.10;1.80;;;25.00;1.00;;;;;;5092928;28;20273;-45
2023/07/07 08:53:34;;;;;;;5.13;1.90;;;25.20;1.00;;;;;;5094191;28;20175;-46
2023/07/07 08:56:34;;;;;;;5.90;1.93;;;25.30;99.90;;;;;;5094113;28;20591;-45
2023/07/07 08:59:26;;;;;;;3.97;1.83;;;25.50;1.00;;;;;;5094043;28;20171;-44
2023/07/07 09:02:10;;;;;;;5.23;1.73;;;25.70;1.00;;;;;;5094329;28;20159;-43
2023/07/07 09:04:59;;;;;;;4.23;1.60;;;25.90;1.00;;;;;;5093703;28;20289;-45
2023/07/07 09:07:43;;;;;;;7.20;1.93;;;26.00;99.90;;;;;;5094059;28;20229;-44
2023/07/07 09:10:20;;;;;;;2.60;1.77;;;26.10;99.90;;;;;;5093691;28;20187;-44
2023/07/07 09:12:56;;;;;;;4.13;2.00;;;26.10;99.90;;;;;;5093874;28;20174;-45
2023/07/07 09:15:33;;;;;;;9.77;2.00;;;26.20;99.90;;;;;;5094012;28;20226;-44
2023/07/07 09:18:05;;;;;;;3.07;1.80;;;26.30;99.90;;;;;;5093809;28;20174;-45
2023/07/07 09:20:35;;;;;;;7.33;2.10;;;26.40;99.90;;;;;;5093484;28;20159;-45
2023/07/07 09:23:08;;;;;;;5.03;2.17;;;26.50;1.00;;;;;;5093322;28;20205;-44
2023/07/07 09:25:45;;;;;;;4.97;1.87;;;26.60;99.90;;;;;;5093481;28;20190;-44
2023/07/07 09:28:14;;;;;;;6.03;2.00;;;26.70;1.00;;;;;;5093749;28;20155;-45
2023/07/07 09:30:47;;;;;;;5.00;2.00;;;26.80;99.90;;;;;;5093351;28;20231;-44
2023/07/07 09:33:16;;;;;;;2.15;1.65;;;26.80;99.90;;;;;;5093629;28;20170;-45
2023/07/07 09:35:57;;;;;;;3.83;1.92;;;26.90;99.90;;;;;;5096578;28;20285;-45
2023/07/07 09:38:54;;;;;;;4.20;2.13;;;27.10;99.90;;;;;;5097412;28;20190;-44
2023/07/07 09:41:45;;;;;;;4.93;1.90;;;27.20;99.90;;;;;;5097535;28;20163;-46
2023/07/07 09:44:35;;;;;;;3.33;1.95;;;27.40;99.90;;;;;;5097876;28;20199;-44
2023/07/07 09:47:28;;;;;;;3.50;1.90;;;27.50;99.90;;;;;;5097674;28;20163;-45
2023/07/07 09:50:26;;;;;;;3.38;2.15;;;27.60;1.00;;;;;;5098639;28;20246;-44
2023/07/07 09:53:13;;;;;;;7.00;2.33;;;27.60;1.00;;;;;;5096069;28;20185;-45
2023/07/07 09:55:40;;;;;;;3.85;2.08;;;27.70;76.40;;;;;;5095886;28;20293;-42
2023/07/07 09:58:09;;;;;;;2.50;1.50;;;27.80;1.00;;;;;;5097508;28;20182;-44
2023/07/07 10:00:36;;;;;;;5.35;1.98;;;28.00;1.00;;;;;;5097430;28;20218;-45
2023/07/07 10:03:10;;;;;;;3.83;1.98;;;28.10;1.00;;;;;;5097307;28;20221;-44
2023/07/07 10:05:36;;;;;;;2.55;1.80;;;28.10;1.00;;;;;;5097034;28;20685;-45
2023/07/07 10:08:06;;;;;;;2.13;1.60;;;28.10;1.00;;;;;;5097059;28;20175;-45
2023/07/07 10:10:32;;;;;;;4.70;2.03;;;28.20;1.00;;;;;;5096964;28;20167;-44
2023/07/07 10:12:58;;;;;;;6.13;2.03;;;28.20;1.00;;;;;;5097204;28;20175;-46
2023/07/07 10:15:47;;;;;;;3.13;1.98;;;28.40;1.00;;;;;;5096918;28;20697;-45
2023/07/07 10:18:19;;;;;;;4.82;2.25;;;28.50;1.00;;;;;;5097120;28;20229;-46
2023/07/07 10:20:45;;;;;;;3.08;2.20;;;28.30;1.00;;;;;;5096799;28;20553;-46
2023/07/07 10:23:12;;;;;;;3.25;1.98;;;28.50;1.00;;;;;;5096660;28;20194;-46
2023/07/07 10:25:39;;;;;;;5.43;2.00;;;28.60;1.00;;;;;;5096700;28;20260;-45
2023/07/07 10:28:12;;;;;;;3.20;1.98;;;28.70;1.00;;;;;;5097159;28;20258;-43
2023/07/07 10:30:38;;;;;;;2.30;1.80;;;28.90;1.00;;;;;;5096883;28;20195;-43
2023/07/07 10:33:05;;;;;;;6.25;2.25;;;28.90;1.00;;;;;;5096802;28;20669;-45
2023/07/07 10:35:32;;;;;;;2.85;1.90;;;29.00;1.00;;;;;;5096514;28;20702;-45
2023/07/07 10:38:03;;;;;;;3.55;2.00;;;29.00;1.00;;;;;;5096918;28;20213;-45
2023/07/07 10:40:29;;;;;;;5.63;1.90;;;29.10;1.00;;;;;;5096517;28;20260;-46
2023/07/07 10:42:57;;;;;;;4.88;2.20;;;29.10;1.00;;;;;;5096287;28;20731;-45
2023/07/07 10:45:23;;;;;;;4.13;2.10;;;29.20;1.00;;;;;;5095791;28;20195;-46
2023/07/07 10:47:49;;;;;;;2.47;1.60;;;29.10;1.00;;;;;;5096317;28;20198;-45
2023/07/07 10:50:18;;;;;;;2.38;1.80;;;29.10;1.00;;;;;;5097597;28;20244;-45
2023/07/07 10:52:46;;;;;;;2.80;1.95;;;29.20;1.00;;;;;;5096272;28;20182;-45
2023/07/07 10:55:23;;;;;;;5.45;2.20;;;29.40;1.00;;;;;;5096075;28;20233;-45
2023/07/07 10:57:49;;;;;;;2.78;1.90;;;29.40;1.00;;;;;;5096371;28;20159;-45
2023/07/07 11:00:36;;;;;;;6.25;1.73;;;29.50;1.00;;;;;;5096275;28;20185;-45
2023/07/07 11:03:20;;;;;;;9.10;2.22;;;29.60;1.00;;;;;;5096488;28;20602;-45
2023/07/07 11:06:02;;;;;;;2.78;2.00;;;29.70;1.00;;;;;;5096497;28;20554;-45
2023/07/07 11:08:37;;;;;;;5.03;2.42;;;29.70;1.00;;;;;;5095808;28;20623;-46
2023/07/07 11:11:27;;;;;;;3.42;2.20;;;29.80;1.00;;;;;;5095843;28;20165;-44
2023/07/07 11:14:17;;;;;;;4.75;2.22;;;29.90;1.00;;;;;;5095784;28;20631;-46
2023/07/07 11:17:10;;;;;;;4.97;2.30;;;29.90;1.00;;;;;;5095989;28;20651;-45
2023/07/07 11:20:01;;;;;;;4.75;2.50;;;29.90;1.00;;;;;;5095745;28;20159;-45
2023/07/07 11:22:56;;;;;;;4.25;2.70;;;30.00;1.00;;;;;;5096053;28;20171;-47
2023/07/07 11:25:37;;;;;;;3.53;1.77;;;29.80;1.00;;;;;;5095762;28;20202;-45
2023/07/07 11:28:14;;;;;;;2.85;2.30;;;29.90;1.00;;;;;;5095432;28;20181;-46
2023/07/07 11:30:49;;;;;;;3.10;2.42;;;30.00;1.00;;;;;;5095758;28;20638;-45
2023/07/07 11:33:29;;;;;;;3.85;2.10;;;30.10;1.00;;;;;;5095617;28;20200;-46
2023/07/07 11:36:25;;;;;;;8.43;2.30;;;30.30;1.00;;;;;;5095283;28;20222;-47
2023/07/07 11:39:28;;;;;;;3.33;2.08;;;30.30;1.00;;;;;;5095381;28;20193;-46
2023/07/07 11:42:15;;;;;;;4.60;2.42;;;30.40;1.00;;;;;;5095523;28;20186;-46
2023/07/07 11:44:59;;;;;;;2.40;1.95;;;30.50;1.00;;;;;;5095061;28;20206;-47
2023/07/07 11:47:33;;;;;;;3.90;2.25;;;30.50;1.00;;;;;;5095416;28;20163;-45
2023/07/07 11:50:28;;;;;;;3.88;2.20;;;30.50;1.00;;;;;;5096583;28;20171;-51
2023/07/07 11:53:24;;;;;;;5.93;2.40;;;30.50;1.00;;;;;;5095642;28;20163;-51
2023/07/07 11:56:07;;;;;;;5.28;2.17;;;30.60;1.00;;;;;;5094870;28;20686;-52
2023/07/07 11:58:48;;;;;;;2.67;2.10;;;30.50;1.00;;;;;;5094164;28;20216;-52
2023/07/07 12:01:24;;;;;;;5.53;2.20;;;30.60;1.00;;;;;;5095147;28;20155;-52
2023/07/07 12:03:58;;;;;;;2.22;1.80;;;30.80;1.00;;;;;;5094912;28;20202;-51
2023/07/07 12:06:37;;;;;;;7.07;2.40;;;31.00;1.00;;;;;;5094955;28;20284;-51
2023/07/07 12:09:12;;;;;;;3.35;2.22;;;31.10;1.00;;;;;;5094744;28;20160;-51
2023/07/07 12:11:43;;;;;;;3.70;2.05;;;31.20;1.00;;;;;;5094950;28;20197;-52
2023/07/07 12:14:21;;;;;;;4.15;2.10;;;31.20;1.00;;;;;;5094859;28;20178;-52
2023/07/07 12:16:50;;;;;;;5.63;2.03;;;31.30;1.00;;;;;;5094916;28;20219;-52
2023/07/07 12:19:38;;;;;;;3.10;2.10;;;31.30;1.00;;;;;;5094564;28;20168;-51
2023/07/07 12:22:12;;;;;;;4.07;2.28;;;31.30;1.00;;;;;;5095195;28;20185;-51
2023/07/07 12:25:02;;;;;;;4.90;1.90;;;31.30;1.00;;;;;;5094300;28;20218;-51
2023/07/07 12:27:33;;;;;;;6.13;1.73;;;31.30;1.00;;;;;;5094711;28;20186;-50
2023/07/07 12:30:01;;;;;;;2.38;1.70;;;31.40;1.00;;;;;;5094300;28;20190;-51
2023/07/07 12:32:27;;;;;;;2.13;1.75;;;31.50;1.00;;;;;;5094473;28;20265;-51
2023/07/07 12:35:09;;;;;;;2.53;1.67;;;31.60;1.00;;;;;;5094110;28;20614;-52
2023/07/07 12:37:36;;;;;;;2.80;2.05;;;31.80;1.00;;;;;;5094763;28;20631;-52
2023/07/07 12:40:16;;;;;;;5.63;2.20;;;31.90;1.00;;;;;;5093953;28;20671;-50
2023/07/07 12:42:42;;;;;;;5.50;2.20;;;31.90;1.00;;;;;;5094261;28;20171;-51
2023/07/07 12:45:20;;;;;;;3.42;2.00;;;31.90;1.00;;;;;;5094177;28;20248;-51
2023/07/07 12:47:51;;;;;;;4.95;1.85;;;32.00;1.00;;;;;;5094518;28;20184;-50
2023/07/07 12:50:38;;;;;;;2.03;1.83;;;32.20;1.00;;;;;;5094812;28;20167;-45
2023/07/07 12:53:20;;;;;;;4.07;2.03;;;32.30;1.00;;;;;;5093846;28;20243;-46
2023/07/07 12:56:01;;;;;;;2.08;1.80;;;32.30;1.00;;;;;;5093821;28;20198;-46
2023/07/07 12:58:42;;;;;;;11.85;2.17;;;32.30;1.00;;;;;;5094044;28;20166;-46
2023/07/07 13:01:15;;;;;;;2.22;1.92;;;32.10;1.00;;;;;;5094079;28;20256;-44
2023/07/07 13:03:59;;;;;;;2.60;2.00;;;32.00;1.00;;;;;;5094498;28;20588;-45
2023/07/07 13:06:30;;;;;;;3.22;2.10;;;32.00;1.00;;;;;;5093621;28;20247;-46
2023/07/07 13:09:17;;;;;;;2.55;2.00;;;32.00;1.00;;;;;;5093714;28;20658;-48